Zim Luanda — 9HA2029 — position and weather

sailwx.info

Track history (hours):
 
Tides and Currents Weather Stations Pressure Air Temp Water Temp Dewpoint Dewpoint Depression Visibility Wind Speed Wind Dir Waves Ship Positions

Zim Luanda

Last reported at 2015-Apr-12 07:31 UTC. Time now 2015-Apr-19 04:37 UTC.
Position N 31°56' W 080°31'.

Length 260 m; draft 12.3 m.

Type: Ship (hazmat cat A). MMSI: 249830000.

Date/timePositionNaut miles runAvg speedWind from/ knotsBaromVisibWave heightAir tempDewpointWater temp
2015-Apr-12 07:31N 31°56' W 080°31'9 9.7
2015-Apr-12 06:33N 31°57' W 080°42'1111.0
2015-Apr-12 05:33N 32°02' W 080°54'8 8.1
2015-Apr-12 04:33N 32°05' W 081°03'5 4.7
2015-Apr-12 03:33N 32°07' W 081°08'2 1.5
2015-Apr-12 02:33N 32°08' W 081°09'0 0.0
2015-Apr-12 01:33N 32°08' W 081°09'0 0.0
2015-Apr-12 00:33N 32°08' W 081°09'0 0.0
2015-Apr-11 23:33N 32°08' W 081°09'0 0.0
2015-Apr-11 22:30N 32°08' W 081°09'0 0.0
2015-Apr-11 21:33N 32°08' W 081°09'0 0.0
2015-Apr-11 20:30N 32°08' W 081°09'0 0.0
2015-Apr-11 19:33N 32°08' W 081°09'0 0.0
2015-Apr-11 18:33N 32°08' W 081°09'0 0.0
2015-Apr-11 17:33N 32°08' W 081°09'0 0.0
2015-Apr-11 16:33N 32°08' W 081°09'0 0.0
2015-Apr-11 15:33N 32°08' W 081°09'0 0.0
2015-Apr-11 14:33N 32°08' W 081°09'0 0.0
2015-Apr-11 13:33N 32°08' W 081°09'0 0.0
2015-Apr-11 12:33N 32°08' W 081°09'0 0.0
2015-Apr-11 11:33N 32°08' W 081°09'0 0.0
2015-Apr-11 10:33N 32°08' W 081°09'0 0.0
2015-Apr-11 09:32N 32°08' W 081°09'2 2.0
2015-Apr-11 08:33N 32°07' W 081°07'7 6.6
2015-Apr-11 07:33N 32°06' W 080°60'1111.3
2015-Apr-11 06:33N 32°00' W 080°48'1110.5
2015-Apr-11 05:33N 31°57' W 080°36'9 9.0
2015-Apr-11 04:33N 31°57' W 080°25'10 9.7
2015-Apr-11 03:32N 31°59' W 080°14'1312.1
2015-Apr-11 02:30N 32°01' W 079°59'1413.7
2015-Apr-11 01:29N 32°05' W 079°44'1313.8
2015-Apr-11 00:33N 32°12' W 079°31'24514.1
2015-Apr-10 07:07N 34°42' W 075°38'295 6.2
2015-Apr-08 07:15N 39°26' W 074°00'1217.5
2015-Apr-08 06:33N 39°38' W 073°55'1717.0
2015-Apr-08 05:33N 39°55' W 073°51'2712.9
2015-Apr-08 03:28N 40°21' W 073°49'8 8.8
2015-Apr-08 02:33N 40°29' W 073°54'1211.9
2015-Apr-08 01:33N 40°38' W 074°03'4 4.3
2015-Apr-08 00:34N 40°40' W 074°08'1 0.8
2015-Apr-07 23:28N 40°41' W 074°09'0 0.0
2015-Apr-07 22:25N 40°41' W 074°09'0 0.0
2015-Apr-07 21:31N 40°41' W 074°09'0 0.0
2015-Apr-07 20:31N 40°41' W 074°09'0 0.0
2015-Apr-07 19:31N 40°41' W 074°09'629599.3
2015-Apr-07 18:28N 30°12' W 074°09'629628.8
2015-Apr-07 17:28N 40°41' W 074°09'0 0.0
2015-Apr-07 16:28N 40°41' W 074°09'0 0.0
2015-Apr-07 15:31N 40°41' W 074°09'0 0.0
2015-Apr-07 14:31N 40°41' W 074°09'0 0.0
2015-Apr-07 13:28N 40°41' W 074°09'0 0.0
2015-Apr-07 12:31N 40°41' W 074°09'0 0.0
2015-Apr-07 11:28N 40°41' W 074°09'0 0.0
2015-Apr-07 10:28N 40°41' W 074°09'0 0.0
2015-Apr-07 09:31N 40°41' W 074°09'0 0.0
2015-Apr-07 08:31N 40°41' W 074°09'0 0.0
2015-Apr-07 07:31N 40°41' W 074°09'0 0.0
2015-Apr-07 06:28N 40°41' W 074°09'0 0.0
2015-Apr-07 05:31N 40°41' W 074°09'0 0.0
2015-Apr-07 04:28N 40°41' W 074°09'0 0.0
2015-Apr-07 03:31N 40°41' W 074°09'0 0.0
2015-Apr-07 02:25N 40°41' W 074°09'0 0.0
2015-Apr-07 01:22N 40°41' W 074°09'0 0.0
2015-Apr-07 00:31N 40°41' W 074°09'0 0.0
2015-Apr-06 23:28N 40°41' W 074°09'0 0.0
2015-Apr-06 22:25N 40°41' W 074°09'0 0.0
2015-Apr-06 21:31N 40°41' W 074°09'0 0.0
2015-Apr-06 20:31N 40°41' W 074°09'0 0.0
2015-Apr-06 19:28N 40°41' W 074°09'0 0.0
2015-Apr-06 18:31N 40°41' W 074°09'0 0.0
2015-Apr-06 17:28N 40°41' W 074°09'0 0.0
2015-Apr-06 16:28N 40°41' W 074°09'0 0.0
2015-Apr-06 15:31N 40°41' W 074°09'0 0.1
2015-Apr-06 14:34N 40°41' W 074°09'4 4.4
2015-Apr-06 13:34N 40°39' W 074°04'1211.7
2015-Apr-06 12:33N 40°29' W 073°55'9 9.0
2015-Apr-06 11:33N 40°27' W 073°43'1310.0
2015-Apr-06 10:14N 40°29' W 073°26'3216.8
2015-Apr-06 08:21N 40°30' W 072°44'1416.7
2015-Apr-06 07:30N 40°31' W 072°26'1616.6
2015-Apr-06 06:33N 40°31' W 072°05'1616.3
2015-Apr-06 05:33N 40°32' W 071°44'1615.9
2015-Apr-06 04:34N 40°32' W 071°23'1615.6
2015-Apr-06 03:33N 40°32' W 071°02'1815.4
2015-Apr-06 02:23N 40°33' W 070°39'39513.1
2015-Apr-04 20:15N 44°32' W 063°32'6 8.1
2015-Apr-04 19:33N 44°38' W 063°34'0 0.0
2015-Apr-04 18:31N 44°38' W 063°34'0 0.0
2015-Apr-04 17:22N 44°38' W 063°34'0 0.0
2015-Apr-04 16:22N 44°38' W 063°34'0 0.0
2015-Apr-04 15:25N 44°38' W 063°34'0 0.0
2015-Apr-04 14:25N 44°38' W 063°34'0 0.0
2015-Apr-04 13:25N 44°38' W 063°34'0 0.0
2015-Apr-04 12:28N 44°38' W 063°34'0 0.0
2015-Apr-04 11:28N 44°38' W 063°34'0 0.0
2015-Apr-04 10:31N 44°38' W 063°34'2 2.5
2015-Apr-04 09:33N 44°36' W 063°32'7 7.0
2015-Apr-04 08:31N 44°29' W 063°28'6 5.6
2015-Apr-04 07:23N 44°27' W 063°19'6 7.1
2015-Apr-04 06:29N 44°27' W 063°10'  
Track history (hours):
 
Tides and Currents Weather Stations Pressure Air Temp Water Temp Dewpoint Dewpoint Depression Visibility Wind Speed Wind Dir Waves Ship Positions

Zim Luanda

Last reported at 2015-Apr-12 07:31 UTC. Time now 2015-Apr-19 04:37 UTC.
Position N 31°56' W 080°31'.

Length 260 m; draft 12.3 m.

Type: Ship (hazmat cat A). MMSI: 249830000.

Date/timePositionNaut miles runAvg speedWind from/ knotsBaromVisibWave heightAir tempDewpointWater temp
2015-Apr-12 07:31N 31°56' W 080°31'9 9.7
2015-Apr-12 06:33N 31°57' W 080°42'1111.0
2015-Apr-12 05:33N 32°02' W 080°54'8 8.1
2015-Apr-12 04:33N 32°05' W 081°03'5 4.7
2015-Apr-12 03:33N 32°07' W 081°08'2 1.5
2015-Apr-12 02:33N 32°08' W 081°09'0 0.0
2015-Apr-12 01:33N 32°08' W 081°09'0 0.0
2015-Apr-12 00:33N 32°08' W 081°09'0 0.0
2015-Apr-11 23:33N 32°08' W 081°09'0 0.0
2015-Apr-11 22:30N 32°08' W 081°09'0 0.0
2015-Apr-11 21:33N 32°08' W 081°09'0 0.0
2015-Apr-11 20:30N 32°08' W 081°09'0 0.0
2015-Apr-11 19:33N 32°08' W 081°09'0 0.0
2015-Apr-11 18:33N 32°08' W 081°09'0 0.0
2015-Apr-11 17:33N 32°08' W 081°09'0 0.0
2015-Apr-11 16:33N 32°08' W 081°09'0 0.0
2015-Apr-11 15:33N 32°08' W 081°09'0 0.0
2015-Apr-11 14:33N 32°08' W 081°09'0 0.0
2015-Apr-11 13:33N 32°08' W 081°09'0 0.0
2015-Apr-11 12:33N 32°08' W 081°09'0 0.0
2015-Apr-11 11:33N 32°08' W 081°09'0 0.0
2015-Apr-11 10:33N 32°08' W 081°09'0 0.0
2015-Apr-11 09:32N 32°08' W 081°09'2 2.0
2015-Apr-11 08:33N 32°07' W 081°07'7 6.6
2015-Apr-11 07:33N 32°06' W 080°60'1111.3
2015-Apr-11 06:33N 32°00' W 080°48'1110.5
2015-Apr-11 05:33N 31°57' W 080°36'9 9.0
2015-Apr-11 04:33N 31°57' W 080°25'10 9.7
2015-Apr-11 03:32N 31°59' W 080°14'1312.1
2015-Apr-11 02:30N 32°01' W 079°59'1413.7
2015-Apr-11 01:29N 32°05' W 079°44'1313.8
2015-Apr-11 00:33N 32°12' W 079°31'24514.1
2015-Apr-10 07:07N 34°42' W 075°38'295 6.2
2015-Apr-08 07:15N 39°26' W 074°00'1217.5
2015-Apr-08 06:33N 39°38' W 073°55'1717.0
2015-Apr-08 05:33N 39°55' W 073°51'2712.9
2015-Apr-08 03:28N 40°21' W 073°49'8 8.8
2015-Apr-08 02:33N 40°29' W 073°54'1211.9
2015-Apr-08 01:33N 40°38' W 074°03'4 4.3
2015-Apr-08 00:34N 40°40' W 074°08'1 0.8
2015-Apr-07 23:28N 40°41' W 074°09'0 0.0
2015-Apr-07 22:25N 40°41' W 074°09'0 0.0
2015-Apr-07 21:31N 40°41' W 074°09'0 0.0
2015-Apr-07 20:31N 40°41' W 074°09'0 0.0
2015-Apr-07 19:31N 40°41' W 074°09'629599.3
2015-Apr-07 18:28N 30°12' W 074°09'629628.8
2015-Apr-07 17:28N 40°41' W 074°09'0 0.0
2015-Apr-07 16:28N 40°41' W 074°09'0 0.0
2015-Apr-07 15:31N 40°41' W 074°09'0 0.0
2015-Apr-07 14:31N 40°41' W 074°09'0 0.0
2015-Apr-07 13:28N 40°41' W 074°09'0 0.0
2015-Apr-07 12:31N 40°41' W 074°09'0 0.0
2015-Apr-07 11:28N 40°41' W 074°09'0 0.0
2015-Apr-07 10:28N 40°41' W 074°09'0 0.0
2015-Apr-07 09:31N 40°41' W 074°09'0 0.0
2015-Apr-07 08:31N 40°41' W 074°09'0 0.0
2015-Apr-07 07:31N 40°41' W 074°09'0 0.0
2015-Apr-07 06:28N 40°41' W 074°09'0 0.0
2015-Apr-07 05:31N 40°41' W 074°09'0 0.0
2015-Apr-07 04:28N 40°41' W 074°09'0 0.0
2015-Apr-07 03:31N 40°41' W 074°09'0 0.0
2015-Apr-07 02:25N 40°41' W 074°09'0 0.0
2015-Apr-07 01:22N 40°41' W 074°09'0 0.0
2015-Apr-07 00:31N 40°41' W 074°09'0 0.0
2015-Apr-06 23:28N 40°41' W 074°09'0 0.0
2015-Apr-06 22:25N 40°41' W 074°09'0 0.0
2015-Apr-06 21:31N 40°41' W 074°09'0 0.0
2015-Apr-06 20:31N 40°41' W 074°09'0 0.0
2015-Apr-06 19:28N 40°41' W 074°09'0 0.0
2015-Apr-06 18:31N 40°41' W 074°09'0 0.0
2015-Apr-06 17:28N 40°41' W 074°09'0 0.0
2015-Apr-06 16:28N 40°41' W 074°09'0 0.0
2015-Apr-06 15:31N 40°41' W 074°09'0 0.1
2015-Apr-06 14:34N 40°41' W 074°09'4 4.4
2015-Apr-06 13:34N 40°39' W 074°04'1211.7
2015-Apr-06 12:33N 40°29' W 073°55'9 9.0
2015-Apr-06 11:33N 40°27' W 073°43'1310.0
2015-Apr-06 10:14N 40°29' W 073°26'3216.8
2015-Apr-06 08:21N 40°30' W 072°44'1416.7
2015-Apr-06 07:30N 40°31' W 072°26'1616.6
2015-Apr-06 06:33N 40°31' W 072°05'1616.3
2015-Apr-06 05:33N 40°32' W 071°44'1615.9
2015-Apr-06 04:34N 40°32' W 071°23'1615.6
2015-Apr-06 03:33N 40°32' W 071°02'1815.4
2015-Apr-06 02:23N 40°33' W 070°39'39513.1
2015-Apr-04 20:15N 44°32' W 063°32'6 8.1
2015-Apr-04 19:33N 44°38' W 063°34'0 0.0
2015-Apr-04 18:31N 44°38' W 063°34'0 0.0
2015-Apr-04 17:22N 44°38' W 063°34'0 0.0
2015-Apr-04 16:22N 44°38' W 063°34'0 0.0
2015-Apr-04 15:25N 44°38' W 063°34'0 0.0
2015-Apr-04 14:25N 44°38' W 063°34'0 0.0
2015-Apr-04 13:25N 44°38' W 063°34'0 0.0
2015-Apr-04 12:28N 44°38' W 063°34'0 0.0
2015-Apr-04 11:28N 44°38' W 063°34'0 0.0
2015-Apr-04 10:31N 44°38' W 063°34'2 2.5
2015-Apr-04 09:33N 44°36' W 063°32'7 7.0
2015-Apr-04 08:31N 44°29' W 063°28'6 5.6
2015-Apr-04 07:23N 44°27' W 063°19'6 7.1
2015-Apr-04 06:29N 44°27' W 063°10'  

Dump ship's entire track history